This is the latest recevied weather packets stored in our database for station/object KO4LFZ. If no packets are shown the sender has not sent any weather packets the latest 10 day(s).
| Time | Temp. | Humidity | Pressure | Rain* | Wind** | Luminosity | Snow |
|---|---|---|---|---|---|---|---|
| 1777416868 | 19.44° C | 98% | 1010.6 hPa | 4.83 mm | - | 3 W/m² | - |
| 1777416563 | 19.44° C | 98% | 1010.6 hPa | 4.83 mm | - | 3 W/m² | - |
| 1777416260 | 19.44° C | 98% | 1010.4 hPa | 3.05 mm | - | 3 W/m² | - |
| 1777415958 | 19.44° C | 97% | 1010.9 hPa | 0 mm | - | 0 W/m² | - |
| 1777415655 | 19.44° C | 97% | 1011.1 hPa | 0 mm | - | 0 W/m² | - |
| 1777415351 | 19.44° C | 97% | 1010.4 hPa | 0 mm | - | 2 W/m² | - |
| 1777415045 | 19.44° C | 96% | 1010.4 hPa | 0 mm | - | 2 W/m² | - |
| 1777414744 | 19.44° C | 96% | 1011.3 hPa | 0 mm | - | 0 W/m² | - |
| 1777414441 | 19.44° C | 95% | 1010.3 hPa | 0 mm | - | 0 W/m² | - |
| 1777414140 | 19.44° C | 95% | 1010 hPa | 0 mm | - | 1 W/m² | - |
| 1777413836 | 20° C | 95% | 1010 hPa | 1.78 mm | - | 3 W/m² | - |
| 1777413531 | 21.11° C | 95% | 1010.4 hPa | 0 mm | - | 3 W/m² | - |
| 1777413228 | 22.22° C | 96% | 1010.4 hPa | 1.27 mm | - | 3 W/m² | - |
| 1777412923 | 22.78° C | 95% | 1010.8 hPa | 1.78 mm | - | 3 W/m² | - |
| 1777412622 | 22.78° C | 94% | 1011.8 hPa | 1.27 mm | - | 3 W/m² | - |
| 1777412319 | 22.78° C | 93% | 1012.1 hPa | 3.05 mm | - | 3 W/m² | - |
| 1777412015 | 23.33° C | 92% | 1011.7 hPa | 1.78 mm | - | 3 W/m² | - |
| 1777411714 | 23.33° C | 90% | 1011.2 hPa | 3.05 mm | - | 4 W/m² | - |
| 1777411409 | 23.89° C | 89% | 1011.1 hPa | 1.78 mm | - | 4 W/m² | - |
| 1777411109 | 23.89° C | 87% | 1010.6 hPa | 0 mm | - | 5 W/m² | - |
| 1777410808 | 24.44° C | 84% | 1011.3 hPa | 0 mm | - | 0 W/m² | - |
| 1777410507 | 24.44° C | 82% | 1011.6 hPa | 0 mm | - | 0 W/m² | - |
| 1777410203 | 24.44° C | 81% | 1011.8 hPa | 0 mm | - | 3 W/m² | - |
| 1777409898 | 25° C | 80% | 1011.4 hPa | 0 mm | - | 5 W/m² | - |
| 1777409594 | 25° C | 80% | 1011.4 hPa | 0 mm | - | 4 W/m² | - |
* Rain latest hour (hover to see other rain measurements)
** Current wind speed in m/s (hover to see current wind gust speed)